Glencoe, Canada
Current Conditions -  °F | °C
As of 11:25 PM on Monday 20 Oct 2014 (Local Time) from CYXU Reporting Station
Haze Haze  
Wind Chill: 50°   Ceiling: 2500
Heat Index: 50°   Visibility: 3mi
Dew Point: 48°   Wind: 5mph
Humidity: 94%   Direction: 290°WNW
Pressure: 29.82"   Gusts: NA
Location:  42.75°N, 81.7°W
Report Text: CYXU 210325Z 29004KT 3SM BR FEW011 OVC025 10/09 A2982 RMK SC2SC6 SLP101
Loading
Personal Weather Stations






























Interactive Weather Map
Tropical Storm Tracking
New forecast layout! Learn more

10-Day Weather Forecast

Advertisements
Track Severe Weather on mobile